KCCA/CCA METAR and TAF weather

Enter ICAO airport designator
Station Type Date Time Source
KCCA METAR 2020/09/20 09:55 UTC NOAA

KCCA 200955Z AUTO 00000KT 3SM BR FEW025 BKN039 OVC095 10/09 A3022 RMK AO2


Station Type Date Time Source
KCCA Decoded METAR 2020/09/20 09:55 UTC NOAA

Station name not available
Sep 20, 2020 - 05:55 AM EDT / 2020.09.20 0955 UTC
Wind: Calm:0
Visibility: 3 mile(s):0
Sky conditions: overcast
Weather: mist
Temperature: 50 F (10 C)
Dew Point: 48 F (9 C)
Relative Humidity: 93%
Pressure (altimeter): 30.22 in. Hg (1023 hPa)
ob: KCCA 200955Z AUTO 00000KT 3SM BR FEW025 BKN039 OVC095 10/09 A3022 RMK AO2
cycle: 10

Station Type Date Time Source
KCCA TAF UTC NOAA

Error!

Example: see airport list